Terminal Aerodrome Forecast
Issued by NWS Quad Cities IA IL

Home | Current Version | Previous Version | Text Only | Print | Product List | Glossary Off
Versions: 1 2 3 4 5 6 7 8 9 10 11 12 13 14 15 16 17

000
FTUS43 KDVN 281100
TAFDBQ
TAF
KDBQ 281120Z 2812/2912 26007KT P6SM SKC
     FM282000 28005KT P6SM SKC
     FM282300 34003KT P6SM BKN250
     FM290200 02005KT P6SM SCT100 OVC200
     FM290900 04007KT P6SM OVC080=

USA.gov is the U.S. government's official web portal to all federal, state and local government web resources and services.